Huvudsida
METAR-TAF:

METAR-TAF

Flygplatser :

Uralsk flygplats

Oral, Kazakstan

latitud: 51-15N, longitud: 051-17E, höjd: 36 m

Aktuellt väderrapport

Denna rapport gjordes för 34 minuter sedan, klockan 07:30 UTC
Vind 10 kt från syd/sydost, varierande mellan sydost och syd
Temperatur 11°C
Fuktighet 43%
Tryck 1019 hPa
Sikt 10 km eller mer
Inga moln under 1 500 m eller inga cumulonimbus

METAR: UARR 230730Z 16005MPS 130V190 CAVOK 11/M01 Q1019 R22/CLRD70 NOSIG RMK QFE761/1014

Tid: 13:04 (08:04 UTC)

Väderprognos

Denna rapport gjordes för 3 timmar och 4 minuter sedan, klockan 05:00 UTC
Prognos gäller från 23 kl. 06 UTC till 23 kl. 15 UTC
Vind 14 kt från syd/sydost i byarna ända upp till 23 kt
Sikt 10 km eller mer
Spridda moln på en höjd av 3300 ft
Temporärt
från 23 kl. 06 UTC till 23 kl. 09 UTC
Vind 8 kt från sydost

TAF: UARR 230500Z 2306/2315 15007G12MPS 9999 SCT033 TEMPO 2306/2309 13004MPS

Aktuella väderrapporter och prognoser från 4000 flygplatser (METAR- och TAF-rapporter).

De tillgängliga stationerna syns som gula och röda prickar på kartan.

För musen över prickarna för att se namnen på stationerna.

Klicka sedan för att få väderrapporter och prognoser.

För att ändra kartan: Klicka på de gröna knapparna med ett svart kors på för att zooma in; den gröna knappen med ett streck på för att zooma ut; eller på de gröna pilarna för angränsande kartor.


METAR-TAF: